Time;durP1;ratioP1;P1;durP2;ratioP2;P2;SDS_P1;SDS_P2;PMS_P1;PMS_P2;Temp;Humidity;BMP_temperature;BMP_pressure;BME280_temperature;BME280_humidity;BME280_pressure;Samples;Min_cycle;Max_cycle;Signal;HPM_P1;HPM_P2
2021/07/18 00:00:26;;;;;;;7.82;3.00;;;;;;;18.07;76.54;100773.59;5073965;28;20422;-66
2021/07/18 00:03:18;;;;;;;8.60;3.00;;;;;;;18.06;76.61;100771.00;5073757;28;20110;-67
2021/07/18 00:06:02;;;;;;;4.45;3.20;;;;;;;18.06;76.56;100771.00;5073598;28;20043;-67
2021/07/18 00:08:49;;;;;;;6.90;3.55;;;;;;;18.04;76.55;100778.00;5074334;28;20126;-66
2021/07/18 00:11:39;;;;;;;5.15;3.35;;;;;;;18.03;76.49;100773.63;5074007;28;20169;-67
2021/07/18 00:14:33;;;;;;;6.70;3.70;;;;;;;18.01;76.49;100775.38;5074394;28;20062;-69
2021/07/18 00:17:23;;;;;;;;;;;;;;;17.98;76.52;100772.78;5074686;28;20101;-66
2021/07/18 00:20:16;;;;;;;6.40;3.15;;;;;;;17.95;76.62;100771.88;5073380;28;19919;-67
2021/07/18 00:23:06;;;;;;;6.45;3.50;;;;;;;17.95;76.52;100774.50;5074441;28;20047;-66
2021/07/18 00:25:58;;;;;;;6.10;3.33;;;;;;;17.93;76.54;100777.97;5073430;28;20051;-66
2021/07/18 00:28:45;;;;;;;4.60;3.17;;;;;;;17.93;76.37;100778.88;5073896;28;20487;-67
2021/07/18 00:31:29;;;;;;;6.65;3.80;;;;;;;17.91;76.52;100775.38;5072978;28;20103;-67
2021/07/18 00:34:22;;;;;;;6.20;3.53;;;;;;;17.91;76.48;100775.38;5073975;28;20047;-67
2021/07/18 00:37:13;;;;;;;6.47;3.92;;;;;;;17.89;76.52;100774.50;5072865;28;20097;-66
2021/07/18 00:40:09;;;;;;;6.72;3.60;;;;;;;17.88;76.07;100772.75;5073250;28;20525;-67
2021/07/18 00:42:59;;;;;;;6.35;3.50;;;;;;;17.88;76.43;100772.75;5073452;28;20082;-67
2021/07/18 00:45:57;;;;;;;5.03;3.55;;;;;;;17.85;76.64;100766.66;5073216;28;20558;-67
2021/07/18 00:48:52;;;;;;;5.45;4.07;;;;;;;17.84;76.47;100764.91;5073792;28;20047;-66
2021/07/18 00:51:42;;;;;;;7.95;3.72;;;;;;;17.83;76.57;100765.78;5073887;28;20102;-67
2021/07/18 00:54:29;;;;;;;5.95;3.20;;;;;;;17.82;76.32;100770.16;5072577;28;20538;-67
2021/07/18 00:57:13;;;;;;;11.13;3.88;;;;;;;17.81;76.51;100765.78;5073070;28;20182;-66
2021/07/18 01:00:10;;;;;;;7.63;3.47;;;;;;;17.79;76.25;100765.78;5073527;28;20408;-67
2021/07/18 01:03:02;;;;;;;4.45;3.45;;;;;;;17.78;76.21;100766.66;5072820;28;20490;-67
2021/07/18 01:05:55;;;;;;;6.45;3.45;;;;;;;17.77;76.40;100764.06;5072839;28;20051;-66
2021/07/18 01:08:48;;;;;;;7.95;3.85;;;;;;;17.75;76.52;100761.41;5072807;28;20047;-67
2021/07/18 01:11:37;;;;;;;7.47;4.88;;;;;;;17.74;76.34;100757.06;5073703;28;20067;-67
2021/07/18 01:14:32;;;;;;;4.75;3.47;;;;;;;17.74;76.14;100753.56;5073695;28;20051;-66
2021/07/18 01:17:21;;;;;;;7.60;3.60;;;;;;;17.72;76.61;100760.56;5073236;28;20043;-68
2021/07/18 01:20:09;;;;;;;7.55;3.83;;;;;;;17.70;76.50;100752.72;5072764;28;20093;-67
2021/07/18 01:22:56;;;;;;;6.22;4.00;;;;;;;17.69;76.51;100750.06;5072501;28;20047;-67
2021/07/18 01:25:48;;;;;;;9.07;4.03;;;;;;;17.68;76.37;100756.19;5072577;28;20047;-68
2021/07/18 01:28:40;;;;;;;7.75;4.78;;;;;;;17.67;76.40;100757.09;5072962;28;20526;-68
2021/07/18 01:31:31;;;;;;;7.20;3.70;;;;;;;17.64;76.61;100753.59;5072678;28;20055;-66
2021/07/18 01:34:26;;;;;;;6.10;4.03;;;;;;;17.65;76.33;100752.72;5073264;28;20044;-67
2021/07/18 01:37:18;;;;;;;4.70;3.95;;;;;;;17.63;76.42;100754.47;5071928;28;20086;-67
2021/07/18 01:40:12;;;;;;;6.15;3.45;;;;;;;17.63;76.36;100756.19;5073284;28;20174;-67
2021/07/18 01:42:59;;;;;;;6.50;4.20;;;;;;;17.62;76.40;100755.34;5073603;28;20114;-67
2021/07/18 01:45:43;;;;;;;4.63;3.03;;;;;;;17.61;76.37;100753.59;5072900;28;20047;-68
2021/07/18 01:48:38;;;;;;;;;;;;;;;17.57;76.36;100756.22;5073607;28;20415;-66
2021/07/18 01:51:31;;;;;;;5.35;3.75;;;;;;;17.56;76.27;100760.59;5072564;28;19922;-68
2021/07/18 01:54:25;;;;;;;5.55;3.67;;;;;;;17.55;76.38;100750.13;5072207;28;20047;-67
2021/07/18 01:57:21;;;;;;;;;;;;;;;17.53;76.42;100762.34;5073860;28;20083;-66
2021/07/18 02:00:13;;;;;;;;;;;;;;;17.49;76.33;100761.50;5073737;28;19966;-66
2021/07/18 02:03:06;;;;;;;7.15;3.60;;;;;;;17.49;76.39;100758.88;5071873;28;19923;-68
2021/07/18 02:05:55;;;;;;;14.63;4.72;;;;;;;17.47;76.28;100751.00;5073072;28;20044;-65
2021/07/18 02:08:39;;;;;;;4.57;3.42;;;;;;;17.47;76.49;100756.22;5072634;28;20553;-67
2021/07/18 02:11:24;;;;;;;8.07;4.32;;;;;;;17.46;76.44;100744.00;5073152;28;20040;-67
2021/07/18 02:14:13;;;;;;;;;;;;;;;17.43;76.32;100751.88;5073532;28;20110;-67
2021/07/18 02:17:05;;;;;;;7.18;4.13;;;;;;;17.43;76.65;100751.00;5072532;28;19971;-66
2021/07/18 02:19:55;;;;;;;8.15;4.03;;;;;;;17.42;76.47;100744.00;5072301;28;20545;-66
2021/07/18 02:22:55;;;;;;;5.70;4.85;;;;;;;17.41;76.34;100745.78;5072272;28;20051;-67
2021/07/18 02:25:48;;;;;;;8.32;4.65;;;;;;;17.41;76.36;100750.13;5071585;28;20043;-67
2021/07/18 02:28:46;;;;;;;7.45;4.10;;;;;;;17.42;76.47;100749.25;5072095;28;20110;-66
2021/07/18 02:31:35;;;;;;;6.72;4.30;;;;;;;17.39;76.35;100739.66;5071727;28;20174;-66
2021/07/18 02:34:20;;;;;;;8.60;4.55;;;;;;;17.40;76.44;100744.03;5071940;28;20114;-66
2021/07/18 02:37:10;;;;;;;8.60;3.92;;;;;;;17.39;76.39;100738.75;5072718;28;20419;-67
2021/07/18 02:40:02;;;;;;;10.00;4.53;;;;;;;17.37;76.38;100737.88;5071920;28;20128;-66
2021/07/18 02:42:57;;;;;;;6.78;4.40;;;;;;;17.36;76.39;100742.28;5072806;28;20048;-67
2021/07/18 02:45:49;;;;;;;5.85;4.00;;;;;;;17.36;76.25;100742.28;5072125;28;20502;-68
2021/07/18 02:48:39;;;;;;;9.20;3.97;;;;;;;17.35;76.47;100738.81;5072515;28;20049;-66
2021/07/18 02:51:28;;;;;;;6.32;4.35;;;;;;;17.34;76.36;100744.03;5075766;28;20095;-68
2021/07/18 02:54:26;;;;;;;10.55;4.22;;;;;;;17.32;76.22;100740.53;5075938;28;20151;-66
2021/07/18 02:57:13;;;;;;;6.63;4.38;;;;;;;17.31;76.29;100742.28;5075612;28;20043;-66
2021/07/18 02:59:57;;;;;;;10.32;4.65;;;;;;;17.30;76.49;100737.91;5076335;28;20039;-66
2021/07/18 03:02:46;;;;;;;10.32;4.55;;;;;;;17.29;76.37;100748.38;5075525;28;20063;-67
2021/07/18 03:05:36;;;;;;;7.13;4.70;;;;;;;17.28;76.47;100733.56;5075181;28;20063;-67
2021/07/18 03:08:31;;;;;;;7.18;4.28;;;;;;;17.27;76.39;100737.91;5074908;28;20067;-67
2021/07/18 03:11:25;;;;;;;7.80;4.78;;;;;;;17.26;76.25;100737.94;5076217;28;20079;-67
2021/07/18 03:14:18;;;;;;;6.13;5.20;;;;;;;17.24;76.27;100737.91;5075513;28;20106;-67
2021/07/18 03:17:10;;;;;;;7.57;4.88;;;;;;;17.25;76.34;100738.81;5075609;28;20051;-67
2021/07/18 03:19:59;;;;;;;5.32;4.50;;;;;;;17.23;76.06;100737.94;5074866;28;20534;-66
2021/07/18 03:22:55;;;;;;;6.07;4.10;;;;;;;17.20;76.35;100734.44;5074772;28;20111;-66
2021/07/18 03:25:39;;;;;;;6.13;4.25;;;;;;;17.20;76.36;100736.19;5075555;28;20122;-67
2021/07/18 03:28:31;;;;;;;6.70;4.28;;;;;;;17.18;76.32;100730.06;5074879;28;20051;-66
2021/07/18 03:31:28;;;;;;;9.02;3.83;;;;;;;17.15;76.32;100725.69;5074959;28;20039;-67
2021/07/18 03:34:23;;;;;;;6.97;4.47;;;;;;;17.13;76.24;100721.34;5075006;28;20060;-66
2021/07/18 03:37:16;;;;;;;6.55;4.68;;;;;;;17.11;76.36;100726.59;5075318;28;20118;-67
2021/07/18 03:40:08;;;;;;;6.97;3.92;;;;;;;17.08;76.14;100725.69;5074914;28;20097;-66
2021/07/18 03:42:57;;;;;;;6.25;3.53;;;;;;;17.04;76.37;100730.06;5075454;28;20462;-67
2021/07/18 03:45:49;;;;;;;7.28;4.25;;;;;;;17.00;76.07;100730.94;5074569;28;20095;-66
2021/07/18 03:48:33;;;;;;;6.13;3.97;;;;;;;16.96;76.17;100729.19;5074680;28;20055;-67
2021/07/18 03:51:17;;;;;;;6.28;4.28;;;;;;;16.91;76.00;100723.91;5074282;28;20526;-67
2021/07/18 03:54:09;;;;;;;6.90;3.55;;;;;;;16.86;76.03;100737.00;5074814;28;20090;-68
2021/07/18 03:56:59;;;;;;;5.40;3.50;;;;;;;16.86;76.17;100731.75;5073997;28;20470;-66
2021/07/18 03:59:50;;;;;;;4.88;3.75;;;;;;;16.84;76.26;100730.03;5074001;28;20111;-66
2021/07/18 04:02:48;;;;;;;3.78;2.92;;;;;;;16.82;76.10;100731.75;5073914;28;20055;-67
2021/07/18 04:05:40;;;;;;;3.90;3.20;;;;;;;16.81;76.14;100725.66;5073829;28;20051;-67
2021/07/18 04:08:30;;;;;;;4.32;3.58;;;;;;;16.79;76.10;100724.78;5073827;28;20526;-66
2021/07/18 04:11:22;;;;;;;4.95;3.42;;;;;;;16.78;76.20;100725.66;5074054;28;20097;-66
2021/07/18 04:14:06;;;;;;;4.68;3.67;;;;;;;16.78;76.07;100738.75;5074751;28;20086;-68
2021/07/18 04:16:50;;;;;;;7.85;4.43;;;;;;;16.79;76.03;100744.84;5074400;28;20106;-67
2021/07/18 04:19:42;;;;;;;12.32;5.72;;;;;;;16.77;76.09;100744.84;5073188;28;20097;-66
2021/07/18 04:22:32;;;;;;;6.90;5.30;;;;;;;16.77;76.21;100738.72;5074026;28;20580;-67
2021/07/18 04:25:21;;;;;;;10.90;5.43;;;;;;;16.78;76.02;100738.75;5073557;28;20526;-66
2021/07/18 04:28:13;;;;;;;7.10;4.38;;;;;;;16.78;76.08;100738.75;5073631;28;20063;-68
2021/07/18 04:31:06;;;;;;;7.32;4.63;;;;;;;16.78;76.01;100737.84;5074422;28;20510;-67
2021/07/18 04:33:58;;;;;;;6.53;4.07;;;;;;;16.78;76.00;100732.63;5074150;28;20094;-67
2021/07/18 04:36:50;;;;;;;6.53;4.20;;;;;;;16.74;75.96;100744.84;5073482;28;20078;-68
2021/07/18 04:39:37;;;;;;;3.95;3.38;;;;;;;16.72;75.88;100731.75;5074025;28;20095;-66
2021/07/18 04:42:21;;;;;;;4.03;3.50;;;;;;;16.71;76.19;100736.97;5073032;28;20051;-67
2021/07/18 04:45:16;;;;;;;6.28;3.63;;;;;;;16.68;76.08;100730.00;5073573;28;20133;-68
2021/07/18 04:48:06;;;;;;;5.90;3.78;;;;;;;16.68;76.04;100734.34;5072981;28;20480;-68
2021/07/18 04:50:56;;;;;;;5.95;4.65;;;;;;;16.67;76.21;100728.25;5073369;28;20123;-67
2021/07/18 04:53:47;;;;;;;6.05;4.40;;;;;;;16.68;76.03;100739.56;5072727;28;20106;-66
2021/07/18 04:56:39;;;;;;;6.15;4.80;;;;;;;16.66;76.17;100734.34;5073090;28;20048;-66
2021/07/18 04:59:32;;;;;;;6.28;4.85;;;;;;;16.67;76.11;100741.34;5074082;28;20094;-68
2021/07/18 05:02:21;;;;;;;11.23;4.80;;;;;;;16.68;76.08;100743.09;5072836;28;20170;-66
2021/07/18 05:05:14;;;;;;;7.68;4.78;;;;;;;16.69;76.00;100749.19;5073018;28;20048;-67
2021/07/18 05:07:59;;;;;;;6.35;5.50;;;;;;;16.69;76.10;100747.44;5073069;28;20110;-67
2021/07/18 05:10:43;;;;;;;;;;;;;;;16.67;76.27;100743.06;5072827;28;20082;-67
2021/07/18 05:13:37;;;;;;;10.43;4.72;;;;;;;16.68;76.15;100750.94;5072103;28;19926;-66
2021/07/18 05:16:29;;;;;;;7.22;4.50;;;;;;;16.69;76.09;100744.84;5073150;28;20583;-68
2021/07/18 05:19:21;;;;;;;7.18;4.82;;;;;;;16.72;76.38;100746.56;5073692;28;20043;-66
2021/07/18 05:22:14;;;;;;;9.30;5.38;;;;;;;16.73;76.13;100743.97;5072549;28;20173;-69
2021/07/18 05:25:10;;;;;;;8.65;6.40;;;;;;;16.75;76.16;100744.81;5073277;28;20526;-67
2021/07/18 05:28:02;;;;;;;13.90;5.38;;;;;;;16.78;76.24;100748.31;5073275;28;20076;-68
2021/07/18 05:30:58;;;;;;;8.90;5.75;;;;;;;16.81;76.16;100750.94;5072269;28;20094;-66
2021/07/18 05:33:42;;;;;;;9.40;6.03;;;;;;;16.85;76.36;100750.09;5073417;28;20051;-67
2021/07/18 05:36:32;;;;;;;17.35;6.75;;;;;;;16.87;76.16;100753.59;5073180;28;20523;-67
2021/07/18 05:39:24;;;;;;;8.52;6.53;;;;;;;16.89;76.25;100747.47;5072614;28;20056;-66
2021/07/18 05:42:16;;;;;;;11.50;6.68;;;;;;;16.93;76.44;100755.34;5072318;28;20047;-67
2021/07/18 05:45:13;;;;;;;9.57;7.28;;;;;;;16.95;76.22;100762.34;5072515;28;20094;-66
2021/07/18 05:48:08;;;;;;;9.63;7.18;;;;;;;16.98;76.55;100762.34;5073056;28;20094;-67
2021/07/18 05:51:01;;;;;;;10.02;7.72;;;;;;;17.00;76.28;100760.63;5072424;28;20051;-66
2021/07/18 05:53:50;;;;;;;10.43;8.38;;;;;;;17.03;76.42;100765.88;5073013;28;20051;-67
2021/07/18 05:56:40;;;;;;;12.00;8.10;;;;;;;17.04;76.69;100765.00;5072546;28;20522;-66
2021/07/18 05:59:27;;;;;;;11.27;9.13;;;;;;;17.07;76.60;100766.72;5072256;28;20514;-68
2021/07/18 06:02:11;;;;;;;10.18;8.25;;;;;;;17.10;76.43;100771.97;5071925;28;20070;-67
2021/07/18 06:05:00;;;;;;;15.98;9.35;;;;;;;17.11;76.48;100772.84;5071942;28;20051;-68
2021/07/18 06:07:58;;;;;;;13.85;9.63;;;;;;;17.13;76.35;100763.25;5072560;28;20515;-67
2021/07/18 06:10:53;;;;;;;11.50;9.05;;;;;;;17.15;76.35;100782.44;5072347;28;20126;-66
2021/07/18 06:13:48;;;;;;;15.75;9.30;;;;;;;17.17;76.66;100780.72;5073060;28;20400;-66
2021/07/18 06:16:38;;;;;;;14.80;10.60;;;;;;;17.20;76.53;100768.47;5073355;28;20093;-67
2021/07/18 06:19:29;;;;;;;17.17;10.48;;;;;;;17.22;76.62;100770.22;5072125;28;20083;-66
2021/07/18 06:22:22;;;;;;;18.08;12.32;;;;;;;17.24;76.80;100771.97;5072055;28;20482;-67
2021/07/18 06:25:11;;;;;;;16.40;11.45;;;;;;;17.25;76.72;100773.72;5074704;28;20403;-66
2021/07/18 06:28:00;;;;;;;20.27;11.68;;;;;;;17.28;76.58;100770.25;5075677;28;20105;-67
2021/07/18 06:30:54;;;;;;;19.63;12.63;;;;;;;17.29;76.55;100777.19;5075581;28;20047;-68
2021/07/18 06:33:46;;;;;;;17.05;12.73;;;;;;;17.30;76.62;100773.69;5075424;28;20174;-67
2021/07/18 06:36:38;;;;;;;15.98;12.85;;;;;;;17.32;76.67;100775.47;5075724;28;20052;-65
2021/07/18 06:39:36;;;;;;;22.88;13.13;;;;;;;17.33;76.86;100773.72;5075351;28;20467;-65
2021/07/18 06:42:28;;;;;;;26.45;15.50;;;;;;;17.34;76.55;100771.09;5075713;28;20059;-67
2021/07/18 06:45:20;;;;;;;21.08;15.95;;;;;;;17.37;76.79;100775.47;5076102;28;20047;-66
2021/07/18 06:48:10;;;;;;;18.48;15.05;;;;;;;17.41;76.84;100782.47;5075105;28;20094;-67
2021/07/18 06:50:59;;;;;;;19.42;14.43;;;;;;;17.42;76.91;100783.31;5075243;28;20059;-67
2021/07/18 06:53:53;;;;;;;23.55;15.38;;;;;;;17.44;76.91;100782.44;5075359;28;20055;-67
2021/07/18 06:56:46;;;;;;;25.70;16.80;;;;;;;17.44;76.77;100781.56;5075688;28;20083;-66
2021/07/18 06:59:41;;;;;;;20.55;15.50;;;;;;;17.46;76.93;100795.53;5074622;28;20043;-67
2021/07/18 07:02:33;;;;;;;;;;;;;;;17.46;76.69;100796.41;5076465;28;20103;-66
2021/07/18 07:05:27;;;;;;;21.98;16.00;;;;;;;17.47;77.01;100792.91;5075190;28;20489;-67
2021/07/18 07:08:19;;;;;;;18.73;15.13;;;;;;;17.46;76.90;100791.16;5076087;28;20047;-67
2021/07/18 07:11:09;;;;;;;22.38;16.38;;;;;;;17.47;76.97;100781.56;5075812;28;20102;-69
2021/07/18 07:13:54;;;;;;;22.00;17.50;;;;;;;17.48;77.10;100786.81;5075416;28;20105;-66
2021/07/18 07:16:45;;;;;;;16.80;13.88;;;;;;;17.50;76.85;100792.06;5075749;28;20051;-67
2021/07/18 07:19:40;;;;;;;18.52;14.10;;;;;;;17.53;76.81;100796.41;5075633;28;20083;-68
2021/07/18 07:22:38;;;;;;;20.40;14.85;;;;;;;17.55;77.14;100792.03;5074849;28;20075;-67
2021/07/18 07:25:28;;;;;;;18.58;14.88;;;;;;;17.56;76.84;100789.41;5075435;28;20047;-67
2021/07/18 07:28:25;;;;;;;21.38;15.13;;;;;;;17.58;77.16;100795.53;5074397;28;20090;-67
2021/07/18 07:31:15;;;;;;;18.70;16.25;;;;;;;17.59;77.10;100797.28;5075337;28;20044;-67
2021/07/18 07:34:05;;;;;;;19.63;15.73;;;;;;;17.60;77.48;100787.66;5074157;28;20530;-67
2021/07/18 07:36:51;;;;;;;23.10;18.40;;;;;;;17.61;77.07;100792.91;5074070;28;20094;-66
2021/07/18 07:39:41;;;;;;;20.05;17.63;;;;;;;17.61;77.36;100795.53;5075167;28;20048;-67
2021/07/18 07:42:36;;;;;;;22.67;17.83;;;;;;;17.64;77.13;100789.41;5074199;28;20055;-66
2021/07/18 07:45:26;;;;;;;19.55;16.67;;;;;;;17.67;77.17;100791.16;5074951;28;20086;-67
2021/07/18 07:48:18;;;;;;;19.80;16.27;;;;;;;17.70;77.27;100788.50;5074145;28;20530;-68
2021/07/18 07:51:11;;;;;;;22.20;16.00;;;;;;;17.71;77.26;100792.88;5074417;28;20048;-66
2021/07/18 07:54:00;;;;;;;24.77;17.73;;;;;;;17.72;77.23;100786.78;5074607;28;20056;-68
2021/07/18 07:56:53;;;;;;;21.25;17.52;;;;;;;17.73;77.26;100793.75;5074216;28;20047;-66
2021/07/18 07:59:42;;;;;;;17.52;15.75;;;;;;;17.73;77.31;100783.28;5074706;28;20110;-68
2021/07/18 08:02:26;;;;;;;17.85;15.52;;;;;;;17.74;77.18;100782.41;5073800;28;20060;-67
2021/07/18 08:05:22;;;;;;;24.17;17.90;;;;;;;17.77;77.17;100785.03;5075156;28;20039;-68
2021/07/18 08:08:15;;;;;;;20.30;16.27;;;;;;;17.79;77.20;100772.78;5073717;28;20042;-67
2021/07/18 08:11:09;;;;;;;18.52;13.73;;;;;;;17.81;77.17;100782.38;5073691;28;20059;-67
2021/07/18 08:14:01;;;;;;;17.40;15.68;;;;;;;17.84;76.99;100784.13;5074268;28;20105;-67
2021/07/18 08:16:51;;;;;;;17.17;13.52;;;;;;;17.87;77.16;100781.50;5073835;28;20086;-66
2021/07/18 08:19:46;;;;;;;14.52;12.68;;;;;;;17.90;77.23;100772.78;5073487;28;20083;-68
2021/07/18 08:22:45;;;;;;;14.55;12.63;;;;;;;17.92;77.13;100778.84;5074789;28;20043;-66
2021/07/18 08:25:29;;;;;;;14.15;12.00;;;;;;;17.97;76.93;100779.72;5073740;28;20190;-69
2021/07/18 08:28:18;;;;;;;13.30;11.85;;;;;;;17.99;77.21;100770.13;5073938;28;20079;-67
2021/07/18 08:31:13;;;;;;;16.85;12.32;;;;;;;18.02;77.01;100766.63;5074119;28;20055;-67
2021/07/18 08:34:03;;;;;;;15.27;10.40;;;;;;;18.05;77.04;100767.50;5074250;28;20123;-67
2021/07/18 08:36:57;;;;;;;14.48;11.27;;;;;;;18.09;76.85;100771.00;5073103;28;20055;-66
2021/07/18 08:39:50;;;;;;;16.38;11.18;;;;;;;18.11;76.93;100769.25;5074401;28;20526;-68
2021/07/18 08:42:40;;;;;;;15.65;10.80;;;;;;;18.15;77.21;100770.09;5073599;28;20051;-67
2021/07/18 08:45:36;;;;;;;11.77;10.27;;;;;;;18.18;77.01;100770.94;5072753;28;20047;-67
2021/07/18 08:48:23;;;;;;;16.85;11.07;;;;;;;18.21;76.87;100775.31;5073583;28;20434;-67
2021/07/18 08:51:07;;;;;;;12.88;9.63;;;;;;;18.23;77.05;100774.44;5073947;28;20098;-68
2021/07/18 08:53:54;;;;;;;13.30;8.75;;;;;;;18.28;76.78;100778.78;5072707;28;20060;-66
2021/07/18 08:56:52;;;;;;;9.52;8.43;;;;;;;18.30;76.81;100777.00;5073255;28;20063;-67
2021/07/18 08:59:42;;;;;;;9.77;8.23;;;;;;;18.33;76.88;100769.13;5073949;28;20047;-66
2021/07/18 09:02:31;;;;;;;10.60;7.13;;;;;;;18.35;76.87;100762.13;5072657;28;20533;-66
2021/07/18 09:05:21;;;;;;;8.75;6.93;;;;;;;18.37;76.96;100771.72;5073063;28;20044;-67
2021/07/18 09:08:20;;;;;;;10.50;7.07;;;;;;;18.39;76.54;100774.38;5072701;28;20411;-67
2021/07/18 09:11:25;;;;;;;9.18;5.85;;;;;;;18.40;76.52;100769.09;5072683;28;20043;-67
2021/07/18 09:14:12;;;;;;;12.02;6.97;;;;;;;18.45;76.49;100768.22;5072459;28;20067;-68
2021/07/18 09:16:56;;;;;;;11.05;5.45;;;;;;;18.48;76.42;100768.19;5072397;28;20047;-68
2021/07/18 09:19:42;;;;;;;10.27;5.43;;;;;;;18.50;76.47;100772.53;5073576;28;20044;-68
2021/07/18 09:22:29;;;;;;;8.30;5.25;;;;;;;18.54;76.39;100769.03;5072497;28;20197;-67
2021/07/18 09:25:13;;;;;;;9.95;5.28;;;;;;;18.57;76.30;100773.38;5072385;28;20128;-69
2021/07/18 09:28:16;;;;;;;9.50;5.40;;;;;;;18.59;76.42;100766.38;5073583;28;20128;-69
2021/07/18 09:31:33;;;;;;;6.32;4.22;;;;;;;18.62;76.56;100776.88;5072844;28;20153;-67
2021/07/18 09:34:28;;;;;;;6.68;3.88;;;;;;;18.64;76.38;100764.59;5072552;28;20055;-66
2021/07/18 09:37:32;;;;;;;5.97;3.92;;;;;;;18.67;76.46;100766.34;5072699;28;20058;-67
2021/07/18 09:40:30;;;;;;;10.35;4.45;;;;;;;18.69;76.45;100765.44;5072609;28;20044;-68
2021/07/18 09:43:26;;;;;;;8.88;4.25;;;;;;;18.73;76.38;100758.44;5072970;28;20526;-68
2021/07/18 09:46:28;;;;;;;5.43;3.92;;;;;;;18.77;76.42;100759.28;5073403;28;20048;-69
2021/07/18 09:49:38;;;;;;;7.13;3.92;;;;;;;18.80;76.14;100754.00;5073229;28;20048;-68
2021/07/18 09:52:37;;;;;;;6.20;3.88;;;;;;;18.83;76.07;100749.59;5073006;28;20560;-69
2021/07/18 09:55:32;;;;;;;6.82;4.50;;;;;;;18.87;76.36;100743.44;5072587;28;20083;-68
2021/07/18 09:58:34;;;;;;;7.65;4.72;;;;;;;18.89;76.25;100745.19;5074800;28;20043;-67
2021/07/18 10:01:28;;;;;;;8.10;5.18;;;;;;;18.93;76.14;100749.53;5077225;28;20086;-67
2021/07/18 10:04:23;;;;;;;10.90;6.75;;;;;;;18.96;76.10;100749.53;5076129;28;20043;-67
2021/07/18 10:07:16;;;;;;;11.80;6.00;;;;;;;18.97;76.21;100735.53;5076917;28;20186;-68
2021/07/18 10:10:05;;;;;;;8.00;5.85;;;;;;;18.99;75.72;100739.91;5076182;28;20047;-68
2021/07/18 10:13:04;;;;;;;8.98;6.60;;;;;;;19.04;76.29;100728.47;5075925;28;20055;-67
2021/07/18 10:15:58;;;;;;;9.07;6.10;;;;;;;19.08;76.10;100738.06;5076897;28;20071;-67
2021/07/18 10:18:54;;;;;;;;;;;;;;;19.09;76.12;100734.56;5076088;28;20052;-67
2021/07/18 10:21:49;;;;;;;9.35;6.03;;;;;;;19.09;76.26;100730.16;5076359;28;19919;-68
2021/07/18 10:24:43;;;;;;;8.85;6.60;;;;;;;19.11;75.84;100733.66;5077106;28;20051;-66
2021/07/18 10:27:46;;;;;;;11.65;7.50;;;;;;;19.16;76.11;100734.50;5076288;28;20047;-67
2021/07/18 10:30:37;;;;;;;8.23;5.82;;;;;;;19.21;76.19;100734.44;5076053;28;20047;-66
2021/07/18 10:33:21;;;;;;;8.38;6.18;;;;;;;19.22;75.87;100735.34;5075551;28;20583;-66
2021/07/18 10:36:07;;;;;;;8.98;6.22;;;;;;;19.24;75.88;100739.69;5076595;28;20407;-68
2021/07/18 10:39:06;;;;;;;9.32;6.00;;;;;;;19.26;75.90;100731.78;5076455;28;20423;-67
2021/07/18 10:42:01;;;;;;;10.13;5.95;;;;;;;19.30;76.09;100729.13;5075821;28;20540;-68
2021/07/18 10:44:59;;;;;;;7.65;5.38;;;;;;;19.33;75.91;100726.44;5075933;28;20050;-68
2021/07/18 10:48:09;;;;;;;8.07;5.82;;;;;;;19.38;76.16;100731.69;5075573;28;20051;-67
2021/07/18 10:51:04;;;;;;;7.75;5.25;;;;;;;19.40;75.98;100729.88;5075808;28;20044;-67
2021/07/18 10:53:59;;;;;;;7.10;5.75;;;;;;;19.44;76.00;100723.72;5076439;28;20511;-67
2021/07/18 10:56:53;;;;;;;6.57;5.35;;;;;;;19.47;76.19;100718.44;5076483;28;20403;-66
2021/07/18 10:59:40;;;;;;;7.97;5.05;;;;;;;19.50;75.85;100724.56;5076340;28;20043;-68
2021/07/18 11:02:32;;;;;;;6.20;4.80;;;;;;;19.52;75.89;100734.16;5076187;28;20128;-67
2021/07/18 11:05:48;;;;;;;8.13;5.05;;;;;;;19.54;76.00;100724.50;5076246;28;20090;-66
2021/07/18 11:09:11;;;;;;;9.73;5.88;;;;;;;19.55;76.05;100720.09;5075302;28;20044;-68
2021/07/18 11:12:04;;;;;;;10.60;6.47;;;;;;;19.58;75.96;100723.59;5074975;28;20420;-67
2021/07/18 11:15:13;;;;;;;7.80;5.95;;;;;;;19.64;75.95;100717.41;5075695;28;20518;-68
2021/07/18 11:18:04;;;;;;;8.90;5.63;;;;;;;19.67;76.12;100716.47;5076052;28;20051;-69
2021/07/18 11:20:56;;;;;;;8.57;5.57;;;;;;;19.69;76.04;100712.09;5074891;28;20095;-68
2021/07/18 11:23:47;;;;;;;7.50;5.47;;;;;;;19.72;75.74;100710.28;5074693;28;20140;-67
2021/07/18 11:26:45;;;;;;;8.20;6.65;;;;;;;19.76;75.92;100708.50;5075690;28;20388;-67
2021/07/18 11:29:45;;;;;;;8.05;5.70;;;;;;;19.80;76.21;100704.06;5075113;28;20101;-67
2021/07/18 11:32:48;;;;;;;7.70;5.88;;;;;;;19.83;76.02;100702.28;5074626;28;20105;-68
2021/07/18 11:35:53;;;;;;;7.05;6.15;;;;;;;19.87;76.06;100703.13;5075613;28;20513;-67
2021/07/18 11:38:49;;;;;;;11.18;5.82;;;;;;;19.88;75.98;100705.75;5074836;28;20047;-68
2021/07/18 11:41:45;;;;;;;8.18;6.03;;;;;;;19.91;75.84;100696.94;5075105;28;20486;-67
2021/07/18 11:44:36;;;;;;;13.25;5.88;;;;;;;19.91;75.80;100695.22;5074444;28;20044;-68
2021/07/18 11:47:20;;;;;;;7.50;6.20;;;;;;;19.91;75.71;100687.31;5074248;28;20048;-68
2021/07/18 11:50:16;;;;;;;8.98;5.65;;;;;;;19.92;75.86;100688.16;5074444;28;20047;-68
2021/07/18 11:53:09;;;;;;;9.02;6.30;;;;;;;19.97;75.51;100680.22;5074694;28;20124;-68
2021/07/18 11:56:01;;;;;;;7.93;6.10;;;;;;;19.99;75.62;100684.59;5073927;28;20122;-67
2021/07/18 11:59:03;;;;;;;8.23;6.30;;;;;;;19.99;75.76;100679.34;5074156;28;20119;-67
2021/07/18 12:01:52;;;;;;;8.57;5.70;;;;;;;20.01;75.63;100669.63;5073964;28;20114;-67
2021/07/18 12:04:42;;;;;;;8.48;5.65;;;;;;;20.05;75.59;100660.81;5074821;28;20043;-67
2021/07/18 12:07:42;;;;;;;7.60;4.90;;;;;;;20.06;75.73;100662.56;5074430;28;20416;-67
2021/07/18 12:10:29;;;;;;;7.72;5.00;;;;;;;20.08;75.72;100659.91;5074617;28;20140;-66
2021/07/18 12:13:37;;;;;;;7.78;5.30;;;;;;;20.10;75.49;100652.00;5074583;28;20127;-68
2021/07/18 12:16:36;;;;;;;8.27;5.28;;;;;;;20.11;75.56;100645.84;5073571;28;20047;-68
2021/07/18 12:19:38;;;;;;;6.53;4.88;;;;;;;20.18;75.45;100644.84;5074612;28;20055;-67
2021/07/18 12:22:32;;;;;;;4.70;4.13;;;;;;;20.17;75.43;100638.72;5074303;28;20048;-67
2021/07/18 12:25:30;;;;;;;5.85;4.78;;;;;;;20.16;75.54;100641.41;5074266;28;20471;-67
2021/07/18 12:28:22;;;;;;;5.20;4.70;;;;;;;20.16;75.43;100633.50;5073216;28;20474;-67
2021/07/18 12:31:07;;;;;;;5.90;4.53;;;;;;;20.18;75.35;100634.31;5074631;28;20098;-68
2021/07/18 12:34:08;;;;;;;4.93;4.18;;;;;;;20.20;75.51;100635.19;5073682;28;20099;-68
2021/07/18 12:37:08;;;;;;;7.40;4.78;;;;;;;20.21;75.52;100634.28;5074369;28;20052;-68
2021/07/18 12:40:11;;;;;;;4.90;4.40;;;;;;;20.26;75.42;100623.69;5073838;28;20067;-68
2021/07/18 12:43:07;;;;;;;5.97;4.55;;;;;;;20.31;75.40;100617.50;5073328;28;20058;-68
2021/07/18 12:46:02;;;;;;;6.13;4.40;;;;;;;20.35;75.45;100615.66;5073557;28;20123;-68
2021/07/18 12:49:10;;;;;;;4.93;3.72;;;;;;;20.37;75.41;100621.78;5073018;28;20111;-67
2021/07/18 12:52:03;;;;;;;8.57;4.00;;;;;;;20.40;75.34;100611.19;5073606;28;20071;-67
2021/07/18 12:54:55;;;;;;;5.07;4.25;;;;;;;20.43;75.15;100612.91;5073508;28;20094;-66
2021/07/18 12:57:42;;;;;;;4.88;3.97;;;;;;;20.43;75.21;100607.66;5073287;28;20110;-67
2021/07/18 13:00:35;;;;;;;6.18;4.78;;;;;;;20.44;75.01;100609.41;5073385;28;20522;-67
2021/07/18 13:03:33;;;;;;;5.70;4.38;;;;;;;20.48;75.32;100611.94;5072609;28;20063;-67
2021/07/18 13:06:47;;;;;;;5.43;4.53;;;;;;;20.50;75.31;100601.38;5073880;28;20090;-68
2021/07/18 13:09:45;;;;;;;7.75;4.30;;;;;;;20.51;74.95;100604.00;5073641;28;20044;-67
2021/07/18 13:12:41;;;;;;;4.55;3.88;;;;;;;20.52;74.74;100605.75;5073653;28;20098;-68
2021/07/18 13:15:36;;;;;;;5.90;4.25;;;;;;;20.52;74.40;100610.13;5073262;28;20128;-68
2021/07/18 13:18:32;;;;;;;7.35;4.20;;;;;;;20.50;75.02;100601.38;5073854;28;20050;-68